Aérodrome :
LOGIN :

S'inscrire | Disclaimer

   EN    FR    IT 

 










Légende :    VFR   VFR Marginal   IFR   IFR Intensif   IFR Très Intensif
Visi : 
Plafond : 
>= 8 km
>= 3000ft
5 à 8 km
1000 à 3000 ft
1500m à 5 km
500 à 1000 ft
800 à 1500m
200 à 500 ft
< 800m
< 200 ft
Symboles :   Orages  Brouillard  Fortes neiges  Fortes précipitations  Vent > 20 kt
SIGMETs :   Divers  Orages  Givrage  Turbulence  Onde Orograph.  Cendres Volcan.







- Altitude de l'aérodrome : 124 ft
- Code IATA : RNS
- Voir les cartes d'approche


LFRN - Rennes

DERNIER METAR :
  • 211300Z AUTO 01007KT 330V040 9999 OVC035 14/08 Q1033 NOSIG

METARs EXPIRÉS :
  • 211230Z AUTO 02007KT 340V040 9999 OVC033 14/08 Q1034 NOSIG
  • 211200Z AUTO 36008KT 9999 OVC029 13/08 Q1034 NOSIG
  • 211130Z AUTO 05006KT 020V090 9999 BKN030 OVC036 14/08 Q1034 NOSIG
  • 211100Z AUTO 06007KT 360V100 9999 BKN038 14/07 Q1034 NOSIG
  • 211030Z AUTO 04005KT 9999 BKN039 13/09 Q1034 NOSIG

TAF TAF LFRN
Valide du 21 à 12h jusqu'au 22 à 12h UTC


211100Z 2112/2212 05006KT 9999 BKN040
BECMG 2123/2202 3000 BR
TEMPO 2204/2209 0500 FG VV///
BECMG 2210/2212 CAVOK
ATIS : +33 2 99 67 72 50
Pas de NOTAMs connus pour ce terrain.



MET'MAP, la Météo Aéronautique d'un coup d'oeil ! - Copyright ORBIFLY Décembre 2007 - Disclaimer

ORBIFLY MET'MAP TEAM :

Programmation & Développement : Alexandra Zaïnal
Conception & Développement : Baudouin d'Aumeries
Co-Programmation & Développement : Marc-Olivier Méhu
Soutien technique & logistique : Manuel Goepfert

Contact : metmap@orbifly.com




SOURCES & CREDITS :

   NOAA